createdAt,value
2022-10-06T00:00:50.495Z,13.07
2022-10-06T00:03:17.579Z,13.22
2022-10-06T00:05:44.512Z,13.23
2022-10-06T00:08:11.702Z,13.24
2022-10-06T00:10:40.431Z,13.10
2022-10-06T00:13:07.357Z,12.89
2022-10-06T00:15:34.291Z,12.74
2022-10-06T00:18:02.068Z,12.85
2022-10-06T00:20:29.124Z,13.00
2022-10-06T00:22:57.141Z,13.03
2022-10-06T00:25:25.375Z,12.95
2022-10-06T00:27:53.163Z,12.98
2022-10-06T00:30:22.265Z,13.02
2022-10-06T00:33:00.904Z,13.05
2022-10-06T00:35:33.744Z,12.78
2022-10-06T00:38:01.082Z,12.89
2022-10-06T00:40:29.061Z,12.70
2022-10-06T00:42:58.415Z,12.52
2022-10-06T00:45:33.543Z,12.53
2022-10-06T00:48:05.342Z,12.60
2022-10-06T00:50:32.226Z,12.75
2022-10-06T00:52:59.069Z,12.93
2022-10-06T00:55:26.034Z,12.60
2022-10-06T00:57:53.009Z,12.43
2022-10-06T01:00:20.635Z,11.98
2022-10-06T01:02:54.793Z,11.88
2022-10-06T01:05:28.748Z,12.12
2022-10-06T01:07:55.843Z,12.35
2022-10-06T01:10:22.546Z,12.32
2022-10-06T01:12:49.277Z,12.18
2022-10-06T01:15:16.796Z,12.30
2022-10-06T01:17:55.269Z,12.19
2022-10-06T01:20:23.154Z,12.29
2022-10-06T01:22:55.466Z,12.25
2022-10-06T01:25:23.048Z,12.42
2022-10-06T01:27:53.873Z,12.43
2022-10-06T01:30:30.384Z,12.40
2022-10-06T01:32:57.006Z,12.38
2022-10-06T01:35:23.809Z,12.17
2022-10-06T01:37:50.469Z,12.13
2022-10-06T01:40:17.180Z,12.10
2022-10-06T01:42:43.815Z,12.10
2022-10-06T01:45:10.784Z,12.19
2022-10-06T01:47:37.357Z,12.29
2022-10-06T01:50:05.538Z,12.33
2022-10-06T01:52:32.168Z,12.31
2022-10-06T01:54:58.774Z,12.40
2022-10-06T01:57:25.374Z,12.29
2022-10-06T01:59:54.779Z,12.32
2022-10-06T02:02:21.880Z,12.15
2022-10-06T02:04:48.606Z,11.96
2022-10-06T02:07:15.413Z,11.97
2022-10-06T02:09:42.031Z,12.04
2022-10-06T02:12:08.663Z,12.00
2022-10-06T02:14:35.238Z,12.27
2022-10-06T02:17:01.833Z,12.31
2022-10-06T02:19:28.424Z,11.94
2022-10-06T02:21:55.948Z,12.07
2022-10-06T02:24:22.497Z,11.91
2022-10-06T02:26:49.145Z,12.11
2022-10-06T02:29:15.723Z,11.98
2022-10-06T02:31:42.437Z,12.03
2022-10-06T02:34:10.130Z,12.08
2022-10-06T02:36:36.787Z,11.76
2022-10-06T02:39:04.284Z,11.71
2022-10-06T02:41:31.810Z,11.86
2022-10-06T02:43:58.714Z,12.15
2022-10-06T02:46:25.689Z,12.11
2022-10-06T02:48:53.849Z,12.18
2022-10-06T02:51:22.051Z,11.67
2022-10-06T02:53:50.155Z,11.25
2022-10-06T02:56:25.297Z,11.25
2022-10-06T02:58:53.369Z,11.40
2022-10-06T03:01:23.975Z,11.30
2022-10-06T03:03:50.698Z,11.13
2022-10-06T03:06:23.408Z,11.43
2022-10-06T03:08:58.996Z,11.46
2022-10-06T03:11:34.685Z,11.35
2022-10-06T03:14:01.565Z,11.35
2022-10-06T03:16:33.592Z,11.58
2022-10-06T03:19:01.629Z,11.21
2022-10-06T03:21:30.839Z,11.25
2022-10-06T03:23:58.853Z,11.37
2022-10-06T03:26:31.536Z,11.62
2022-10-06T03:28:58.531Z,11.60
2022-10-06T03:31:25.626Z,11.68
2022-10-06T03:33:55.181Z,11.67
2022-10-06T03:36:23.624Z,11.64
2022-10-06T03:38:50.875Z,11.60
2022-10-06T03:41:20.261Z,11.64
2022-10-06T03:43:49.018Z,11.51
2022-10-06T03:46:18.744Z,11.30
2022-10-06T03:48:46.381Z,11.29
2022-10-06T03:51:18.786Z,11.32
2022-10-06T03:53:47.246Z,11.35
2022-10-06T03:56:22.663Z,11.46
2022-10-06T03:58:57.823Z,11.38
2022-10-06T04:01:30.614Z,11.54
2022-10-06T04:03:59.494Z,11.43
2022-10-06T04:06:27.737Z,11.35
2022-10-06T04:08:55.285Z,10.85
2022-10-06T04:11:30.718Z,10.96
2022-10-06T04:14:02.822Z,11.10
2022-10-06T04:16:32.110Z,11.17
2022-10-06T04:19:00.975Z,11.18
2022-10-06T04:21:28.988Z,10.77
2022-10-06T04:23:59.777Z,10.89
2022-10-06T04:26:30.748Z,10.92
2022-10-06T04:28:57.586Z,11.10
2022-10-06T04:31:37.116Z,10.67
2022-10-06T04:34:05.370Z,10.67
2022-10-06T04:36:41.016Z,10.84
2022-10-06T04:39:10.694Z,10.93
2022-10-06T04:41:39.720Z,11.11
2022-10-06T04:44:07.397Z,11.16
2022-10-06T04:46:43.843Z,11.25
2022-10-06T04:49:17.944Z,11.32
2022-10-06T04:51:46.259Z,11.44
2022-10-06T04:54:12.905Z,11.44
2022-10-06T04:56:39.507Z,11.50
2022-10-06T04:59:06.113Z,11.45
2022-10-06T05:01:35.593Z,11.63
2022-10-06T05:04:04.252Z,11.35
2022-10-06T05:06:39.009Z,11.36
2022-10-06T05:09:11.388Z,11.26
2022-10-06T05:11:38.260Z,11.41
2022-10-06T05:14:05.544Z,11.44
2022-10-06T05:16:32.589Z,11.47
2022-10-06T05:18:59.599Z,11.34
2022-10-06T05:21:29.364Z,11.41
2022-10-06T05:23:56.213Z,11.27
2022-10-06T05:26:24.597Z,11.40
2022-10-06T05:28:51.444Z,11.58
2022-10-06T05:31:32.829Z,11.16
2022-10-06T05:33:59.986Z,11.14
2022-10-06T05:36:32.898Z,11.47
2022-10-06T05:39:00.453Z,11.62
2022-10-06T05:41:32.865Z,11.72
2022-10-06T05:44:00.078Z,11.69
2022-10-06T05:46:29.016Z,11.51
2022-10-06T05:49:14.824Z,11.26
2022-10-06T05:51:42.021Z,11.70
2022-10-06T05:54:08.742Z,11.02
2022-10-06T05:56:37.657Z,11.06
2022-10-06T05:59:05.192Z,11.26
2022-10-06T06:01:33.020Z,11.53
2022-10-06T06:04:03.744Z,11.51
2022-10-06T06:06:38.459Z,11.55
2022-10-06T06:09:20.369Z,11.34
2022-10-06T06:11:52.674Z,11.68
2022-10-06T06:14:43.997Z,11.70
2022-10-06T06:17:11.568Z,11.82
2022-10-06T06:19:38.217Z,12.04
2022-10-06T06:22:04.847Z,11.99
2022-10-06T06:24:31.427Z,12.20
2022-10-06T06:26:57.986Z,12.22
2022-10-06T06:29:24.582Z,12.54
2022-10-06T06:31:51.401Z,12.24
2022-10-06T06:34:18.065Z,12.14
2022-10-06T06:36:47.140Z,12.22
2022-10-06T06:39:15.673Z,12.12
2022-10-06T06:41:48.957Z,12.60
2022-10-06T06:44:15.519Z,12.58
2022-10-06T06:46:44.889Z,12.47
2022-10-06T06:49:15.564Z,12.73
2022-10-06T06:51:44.412Z,12.91
2022-10-06T06:54:12.925Z,12.96
2022-10-06T06:56:39.850Z,12.80
2022-10-06T06:59:12.006Z,12.95
2022-10-06T07:01:47.175Z,12.53
2022-10-06T07:04:15.973Z,12.64
2022-10-06T07:06:47.612Z,12.67
2022-10-06T07:09:14.284Z,12.90
2022-10-06T07:11:41.129Z,12.94
2022-10-06T07:14:12.612Z,13.48
2022-10-06T07:16:58.270Z,13.82
2022-10-06T07:19:43.396Z,13.60
2022-10-06T07:22:28.387Z,13.54
2022-10-06T07:25:12.955Z,13.43
2022-10-06T07:27:42.267Z,12.91
2022-10-06T07:30:30.154Z,13.55
2022-10-06T07:32:56.739Z,13.71
2022-10-06T07:35:24.959Z,13.68
2022-10-06T07:37:55.094Z,13.81
2022-10-06T07:40:21.673Z,14.18
2022-10-06T07:42:48.424Z,14.35
2022-10-06T07:45:33.789Z,13.78
2022-10-06T07:48:02.484Z,13.33
2022-10-06T07:50:29.376Z,13.95
2022-10-06T07:52:56.364Z,13.77
2022-10-06T07:55:23.046Z,14.53
2022-10-06T07:57:51.257Z,14.52
2022-10-06T08:00:20.921Z,14.63
2022-10-06T08:02:47.569Z,14.91
2022-10-06T08:05:14.561Z,14.92
2022-10-06T08:07:41.416Z,14.24
2022-10-06T08:10:08.351Z,13.81
2022-10-06T08:12:37.354Z,13.46
2022-10-06T08:15:07.598Z,13.86
2022-10-06T08:17:36.342Z,14.43
2022-10-06T08:20:04.516Z,14.85
2022-10-06T08:22:31.192Z,15.13
2022-10-06T08:25:05.745Z,15.03
2022-10-06T08:27:37.069Z,14.91
2022-10-06T08:30:07.856Z,14.82
2022-10-06T08:32:34.520Z,15.24
2022-10-06T08:35:01.452Z,14.79
2022-10-06T08:37:28.103Z,14.98
2022-10-06T08:39:55.437Z,15.21
2022-10-06T08:42:33.933Z,15.31
2022-10-06T08:45:04.951Z,15.44
2022-10-06T08:47:35.990Z,15.20
2022-10-06T08:50:05.664Z,14.92
2022-10-06T08:52:46.276Z,15.36
2022-10-06T08:55:24.785Z,15.63
2022-10-06T09:00:42.550Z,15.24
2022-10-06T09:03:24.340Z,15.47
2022-10-06T09:05:54.986Z,15.46
2022-10-06T09:08:50.740Z,15.68
2022-10-06T09:11:55.282Z,15.94
2022-10-06T09:14:29.773Z,15.98
2022-10-06T09:17:01.303Z,16.10
2022-10-06T09:19:47.476Z,16.26
2022-10-06T09:22:20.660Z,16.37
2022-10-06T09:24:51.253Z,16.55
2022-10-06T09:27:41.322Z,16.43
2022-10-06T09:30:13.270Z,16.47
2022-10-06T09:32:46.909Z,16.29
2022-10-06T09:35:23.261Z,16.30
2022-10-06T09:38:08.810Z,16.75
2022-10-06T09:40:54.015Z,16.82
2022-10-06T09:43:31.118Z,16.79
2022-10-06T09:46:21.458Z,16.91
2022-10-06T09:48:48.185Z,16.91
2022-10-06T09:51:18.275Z,16.88
2022-10-06T09:54:12.753Z,17.12
2022-10-06T09:56:45.544Z,17.17
2022-10-06T09:59:37.625Z,16.67
2022-10-06T10:02:28.514Z,16.85
2022-10-06T10:05:07.391Z,17.00
2022-10-06T10:07:35.988Z,17.50
2022-10-06T10:10:23.183Z,17.31
2022-10-06T10:13:00.487Z,16.90
2022-10-06T10:15:40.548Z,16.79
2022-10-06T10:18:17.162Z,17.39
2022-10-06T10:20:59.014Z,17.41
2022-10-06T10:23:31.739Z,17.42
2022-10-06T10:26:08.173Z,17.68
2022-10-06T10:28:59.779Z,17.86
2022-10-06T10:31:48.419Z,17.77
2022-10-06T10:34:47.300Z,17.76
2022-10-06T10:37:25.693Z,17.55
2022-10-06T10:40:00.522Z,17.61
2022-10-06T10:42:38.544Z,17.82
2022-10-06T10:45:15.111Z,17.73
2022-10-06T10:47:46.869Z,18.12
2022-10-06T10:50:28.338Z,18.15
2022-10-06T10:53:02.278Z,18.35
2022-10-06T10:55:34.454Z,18.56
2022-10-06T10:58:29.037Z,18.53
2022-10-06T11:01:02.527Z,18.67
2022-10-06T11:03:29.129Z,18.47
2022-10-06T11:06:22.771Z,17.95
2022-10-06T11:08:52.042Z,18.36
2022-10-06T11:11:55.432Z,18.73
2022-10-06T11:14:59.879Z,18.99
2022-10-06T11:17:44.934Z,19.10
2022-10-06T11:20:36.467Z,19.04
2022-10-06T11:23:18.723Z,19.25
2022-10-06T11:26:08.029Z,19.43
2022-10-06T11:28:59.734Z,19.55
2022-10-06T11:31:32.189Z,19.30
2022-10-06T11:34:02.031Z,19.49
2022-10-06T11:36:37.732Z,19.57
2022-10-06T11:39:13.343Z,19.59
2022-10-06T11:41:49.432Z,19.58
2022-10-06T11:44:34.448Z,19.72
2022-10-06T11:47:36.330Z,19.72
2022-10-06T11:50:36.767Z,19.75
2022-10-06T11:53:26.841Z,19.84
2022-10-06T11:56:19.434Z,19.99
2022-10-06T11:58:54.634Z,19.75
2022-10-06T12:01:50.435Z,19.49
2022-10-06T12:04:24.715Z,19.80
2022-10-06T12:06:52.150Z,19.75
2022-10-06T12:09:33.376Z,19.94
2022-10-06T12:12:07.099Z,20.16
2022-10-06T12:17:58.062Z,19.91
2022-10-06T12:21:06.456Z,20.05
2022-10-06T12:23:42.903Z,20.36
2022-10-06T12:26:25.677Z,20.67
2022-10-06T12:28:59.399Z,20.69
2022-10-06T12:31:47.609Z,20.26
2022-10-06T12:34:51.857Z,20.09
2022-10-06T12:37:33.509Z,20.11
2022-10-06T12:40:38.179Z,20.32
2022-10-06T12:43:20.895Z,20.61
2022-10-06T12:46:02.143Z,20.51
2022-10-06T12:49:04.628Z,20.62
2022-10-06T12:51:36.221Z,20.49
2022-10-06T12:54:25.369Z,20.69
2022-10-06T12:57:03.624Z,20.76
2022-10-06T12:59:35.254Z,20.93
2022-10-06T13:02:08.031Z,20.73
2022-10-06T13:04:53.957Z,20.63
2022-10-06T13:07:20.542Z,20.39
2022-10-06T13:09:50.076Z,20.75
2022-10-06T13:12:32.330Z,20.85
2022-10-06T13:15:41.555Z,20.86
2022-10-06T13:18:08.049Z,21.03
2022-10-06T13:20:49.232Z,20.97
2022-10-06T13:23:26.658Z,20.88
2022-10-06T13:26:02.474Z,20.93
2022-10-06T13:28:44.077Z,20.95
2022-10-06T13:31:26.760Z,20.97
2022-10-06T13:34:13.869Z,21.01
2022-10-06T13:36:47.563Z,21.06
2022-10-06T13:39:16.668Z,21.05
2022-10-06T13:41:47.965Z,21.01
2022-10-06T13:44:14.494Z,20.94
2022-10-06T13:46:45.965Z,20.88
2022-10-06T13:49:26.307Z,20.92
2022-10-06T13:51:54.653Z,20.98
2022-10-06T13:54:33.317Z,21.02
2022-10-06T13:56:59.953Z,20.74
2022-10-06T13:59:32.892Z,20.85
2022-10-06T14:02:17.867Z,20.85
2022-10-06T14:04:45.245Z,20.64
2022-10-06T14:07:14.200Z,20.56
2022-10-06T14:09:42.973Z,20.70
2022-10-06T14:12:18.460Z,20.67
2022-10-06T14:14:51.058Z,20.64
2022-10-06T14:17:24.439Z,20.43
2022-10-06T14:19:54.986Z,20.50
2022-10-06T14:23:07.513Z,20.37
2022-10-06T14:25:43.111Z,20.41
2022-10-06T14:28:13.125Z,20.31
2022-10-06T14:30:51.122Z,20.23
2022-10-06T14:33:40.657Z,20.20
2022-10-06T14:36:19.685Z,20.23
2022-10-06T14:38:51.209Z,20.27
2022-10-06T14:41:31.722Z,20.27
2022-10-06T14:44:08.435Z,20.09
2022-10-06T14:46:40.643Z,19.97
2022-10-06T14:49:09.701Z,19.91
2022-10-06T14:51:37.355Z,19.80
2022-10-06T14:54:06.044Z,19.76
2022-10-06T14:56:34.945Z,19.62
2022-10-06T14:59:07.145Z,19.54
2022-10-06T15:01:36.666Z,19.42
2022-10-06T15:04:07.226Z,19.32
2022-10-06T15:06:52.424Z,19.33
2022-10-06T15:09:19.040Z,19.21
2022-10-06T15:11:45.779Z,19.00
2022-10-06T15:14:12.449Z,18.98
2022-10-06T15:16:42.416Z,18.91
2022-10-06T15:19:10.964Z,18.82
2022-10-06T15:21:39.906Z,18.72
2022-10-06T15:24:08.146Z,18.58
2022-10-06T15:26:53.274Z,18.59
2022-10-06T15:29:20.071Z,18.53
2022-10-06T15:31:55.356Z,18.52
2022-10-06T15:34:27.368Z,18.49
2022-10-06T15:36:55.495Z,18.55
2022-10-06T15:39:24.443Z,18.59
2022-10-06T15:41:51.362Z,18.46
2022-10-06T15:44:21.985Z,18.48
2022-10-06T15:46:50.791Z,18.45
2022-10-06T15:49:22.776Z,18.41
2022-10-06T15:52:11.548Z,18.21
2022-10-06T15:54:40.989Z,18.26
2022-10-06T15:57:10.524Z,18.27
2022-10-06T15:59:40.020Z,18.25
2022-10-06T16:02:15.704Z,18.17
2022-10-06T16:04:43.131Z,18.20
2022-10-06T16:07:12.194Z,18.15
2022-10-06T16:09:51.063Z,18.05
2022-10-06T16:12:21.370Z,18.13
2022-10-06T16:14:48.288Z,18.04
2022-10-06T16:17:15.473Z,18.13
2022-10-06T16:19:42.822Z,17.94
2022-10-06T16:22:14.592Z,17.62
2022-10-06T16:24:41.872Z,17.61
2022-10-06T16:27:13.200Z,17.45
2022-10-06T16:29:40.538Z,17.46
2022-10-06T16:32:07.161Z,17.43
2022-10-06T16:34:33.840Z,17.41
2022-10-06T16:37:03.728Z,17.12
2022-10-06T16:39:30.465Z,17.16
2022-10-06T16:41:57.111Z,17.15
2022-10-06T16:44:23.813Z,17.02
2022-10-06T16:46:53.730Z,17.12
2022-10-06T16:49:27.063Z,17.10
2022-10-06T16:51:53.717Z,17.03
2022-10-06T16:54:21.163Z,17.05
2022-10-06T16:56:53.904Z,17.09
2022-10-06T16:59:22.994Z,17.05
2022-10-06T17:01:50.596Z,17.02
2022-10-06T17:04:30.793Z,16.98
2022-10-06T17:06:57.735Z,17.00
2022-10-06T17:09:27.845Z,17.03
2022-10-06T17:12:02.104Z,17.02
2022-10-06T17:14:30.654Z,17.02
2022-10-06T17:16:58.141Z,16.97
2022-10-06T17:19:31.967Z,17.00
2022-10-06T17:22:02.896Z,16.92
2022-10-06T17:24:31.283Z,16.95
2022-10-06T17:26:58.559Z,16.95
2022-10-06T17:29:27.091Z,16.83
2022-10-06T17:32:00.300Z,16.81
2022-10-06T17:34:32.744Z,16.73
2022-10-06T17:37:02.254Z,16.76
2022-10-06T17:39:29.884Z,16.80
2022-10-06T17:41:56.796Z,16.74
2022-10-06T17:44:27.043Z,16.68
2022-10-06T17:46:56.819Z,16.62
2022-10-06T17:49:24.437Z,16.62
2022-10-06T17:51:52.889Z,16.61
2022-10-06T17:54:21.994Z,16.54
2022-10-06T17:56:50.619Z,16.57
2022-10-06T17:59:28.583Z,16.48
2022-10-06T18:01:57.017Z,16.48
2022-10-06T18:04:24.328Z,16.41
2022-10-06T18:06:54.034Z,16.40
2022-10-06T18:09:21.604Z,16.38
2022-10-06T18:11:48.598Z,16.41
2022-10-06T18:14:17.644Z,16.45
2022-10-06T18:16:59.171Z,16.31
2022-10-06T18:19:31.138Z,16.34
2022-10-06T18:22:01.384Z,16.38
2022-10-06T18:24:30.026Z,16.40
2022-10-06T18:26:59.881Z,16.33
2022-10-06T18:29:30.721Z,16.34
2022-10-06T18:32:14.510Z,16.32
2022-10-06T18:37:30.581Z,16.28
2022-10-06T18:39:57.219Z,16.30
2022-10-06T18:42:24.158Z,16.21
2022-10-06T18:45:09.397Z,16.20
2022-10-06T18:47:54.277Z,16.18
2022-10-06T18:50:20.977Z,16.10
2022-10-06T18:52:47.586Z,16.13
2022-10-06T18:55:14.140Z,16.14
2022-10-06T18:57:41.327Z,16.14
2022-10-06T19:00:10.461Z,16.13
2022-10-06T19:02:37.054Z,16.10
2022-10-06T19:05:04.910Z,16.10
2022-10-06T19:07:31.664Z,16.13
2022-10-06T19:09:58.685Z,16.06
2022-10-06T19:12:25.343Z,16.07
2022-10-06T19:14:52.046Z,16.11
2022-10-06T19:17:18.680Z,16.14
2022-10-06T19:19:57.080Z,16.10
2022-10-06T19:22:26.731Z,15.92
2022-10-06T19:24:53.307Z,15.93
2022-10-06T19:27:24.968Z,15.85
2022-10-06T19:29:54.774Z,15.78
2022-10-06T19:32:24.638Z,15.79
2022-10-06T19:34:52.278Z,15.79
2022-10-06T19:37:19.634Z,15.82
2022-10-06T19:39:48.153Z,15.78
2022-10-06T19:42:35.543Z,15.76
2022-10-06T19:45:02.445Z,15.72
2022-10-06T19:47:29.824Z,15.69
2022-10-06T19:50:02.154Z,15.66
2022-10-06T19:52:31.334Z,15.74
2022-10-06T19:54:58.193Z,15.71
2022-10-06T19:57:25.135Z,15.71
2022-10-06T19:59:51.789Z,15.67
2022-10-06T20:02:18.522Z,15.62
2022-10-06T20:04:45.484Z,15.61
2022-10-06T20:07:12.733Z,15.50
2022-10-06T20:09:39.430Z,15.51
2022-10-06T20:12:06.054Z,15.57
2022-10-06T20:14:32.699Z,15.54
2022-10-06T20:16:59.349Z,15.48
2022-10-06T20:19:26.043Z,15.44
2022-10-06T20:21:53.187Z,15.54
2022-10-06T20:24:22.972Z,15.53
2022-10-06T20:26:50.866Z,15.54
2022-10-06T20:29:23.658Z,15.42
2022-10-06T20:31:56.071Z,15.47
2022-10-06T20:34:26.340Z,15.46
2022-10-06T20:36:56.242Z,15.51
2022-10-06T20:39:42.053Z,15.45
2022-10-06T20:42:14.722Z,15.43
2022-10-06T20:44:42.679Z,15.43
2022-10-06T20:47:11.885Z,15.37
2022-10-06T20:49:39.545Z,15.30
2022-10-06T20:52:09.779Z,15.28
2022-10-06T20:54:37.272Z,15.29
2022-10-06T20:57:06.192Z,15.22
2022-10-06T20:59:36.514Z,15.33
2022-10-06T21:02:05.101Z,15.29
2022-10-06T21:04:34.992Z,15.15
2022-10-06T21:07:05.711Z,15.11
2022-10-06T21:09:32.435Z,15.24
2022-10-06T21:12:05.142Z,15.23
2022-10-06T21:14:31.806Z,15.23
2022-10-06T21:17:01.393Z,15.21
2022-10-06T21:19:29.894Z,15.27
2022-10-06T21:21:59.801Z,15.32
2022-10-06T21:24:26.538Z,15.32
2022-10-06T21:26:53.121Z,15.26
2022-10-06T21:29:20.546Z,15.21
2022-10-06T21:31:47.431Z,15.18
2022-10-06T21:34:14.479Z,15.13
2022-10-06T21:36:47.466Z,15.23
2022-10-06T21:39:14.001Z,15.12
2022-10-06T21:41:41.320Z,15.10
2022-10-06T21:44:10.254Z,15.07
2022-10-06T21:46:57.499Z,14.82
2022-10-06T21:49:25.408Z,15.05
2022-10-06T21:51:54.101Z,15.08
2022-10-06T21:54:21.598Z,15.01
2022-10-06T21:56:48.725Z,14.95
2022-10-06T21:59:15.827Z,15.00
2022-10-06T22:01:44.802Z,14.93
2022-10-06T22:04:14.110Z,15.04
2022-10-06T22:06:41.391Z,14.91
2022-10-06T22:09:09.945Z,14.90
2022-10-06T22:11:39.039Z,14.93
2022-10-06T22:14:10.026Z,14.87
2022-10-06T22:16:37.760Z,14.82
2022-10-06T22:19:07.001Z,14.88
2022-10-06T22:21:36.504Z,14.92
2022-10-06T22:24:09.143Z,14.84
2022-10-06T22:26:38.005Z,14.91
2022-10-06T22:29:07.181Z,14.93
2022-10-06T22:31:34.281Z,14.87
2022-10-06T22:34:04.816Z,14.85
2022-10-06T22:36:33.223Z,14.80
2022-10-06T22:39:00.286Z,14.71
2022-10-06T22:41:27.064Z,14.72
2022-10-06T22:43:57.573Z,14.40
2022-10-06T22:46:25.580Z,14.66
2022-10-06T22:48:52.566Z,14.69
2022-10-06T22:51:19.269Z,14.66
2022-10-06T22:53:46.142Z,14.66
2022-10-06T22:56:13.048Z,14.73
2022-10-06T22:58:39.685Z,14.52
2022-10-06T23:01:14.451Z,14.54
2022-10-06T23:03:41.383Z,14.59
2022-10-06T23:06:10.316Z,14.55
2022-10-06T23:08:37.919Z,14.52
2022-10-06T23:11:10.151Z,14.52
2022-10-06T23:13:37.054Z,14.50
2022-10-06T23:16:07.821Z,14.47
2022-10-06T23:18:36.943Z,14.49
2022-10-06T23:21:19.293Z,14.44
2022-10-06T23:23:46.338Z,14.39
2022-10-06T23:26:14.587Z,14.45
2022-10-06T23:28:41.630Z,14.46
2022-10-06T23:31:10.120Z,14.55
2022-10-06T23:33:37.088Z,14.51
2022-10-06T23:36:08.936Z,14.50
2022-10-06T23:38:36.982Z,14.51
2022-10-06T23:41:04.531Z,14.22
2022-10-06T23:43:31.781Z,14.37
2022-10-06T23:45:58.557Z,14.47
2022-10-06T23:48:25.708Z,14.50
2022-10-06T23:51:04.565Z,14.42
2022-10-06T23:53:32.032Z,14.44
2022-10-06T23:55:59.010Z,14.42
2022-10-06T23:58:26.055Z,14.43
